Terminal Aerodrome Forecast
Issued by NWS

Home | Current Version | Previous Version | Text Only | Print | Product List | Glossary On
Versions: 1 2 3 4 5 6 7 8 9 10 11 12 13 14 15
286
FTAK31 PAJN 171124
TAFAYA
TAF
PAYA 171124Z 1712/1812 07006KT P6SM VCSH SCT025 OVC035
      TEMPO 1712/1714 SCT040
     FM171800 08005KT P6SM VCSH BKN050
     FM181000 09005KT P6SM VCSH BKN050 WS020/05025KT
      AMD NOT SKED=

USA.gov is the U.S. government's official web portal to all federal, state and local government web resources and services.